Latest Weather Observations for Beerburrum

IDQ60901

Issued at 11:31 pm EST Saturday 15 December 2018 (issued every 10 minutes, with the page automatically refreshed every 10 minutes)

About weather observations | Map of Brisbane area stations | Latest observations for Brisbane area | Other Formats
Station Details ID: 040284 Name: BEERBURRUM FOREST STATION Lat: -26.96 Lon: 152.96 Height: 48.0 m
Data from the previous 72 hours. | See also: Recent months at Beerburrum
Date/Time
EST
Temp
°C
App
Temp
°C
Dew
Point
°C
Rel
Hum
%
Delta-T
°C
Wind Press
QNH
hPa
Press
MSL
hPa
Rain since
9am
mm
Dir  Spd
km/h
Gust
km/h
Spd
kts
Gust
kts
15/11:30pm 23.6 27.5 21.9 90 1.1 ENE 4 9 2 5 - - 0.6
15/11:00pm 23.6 27.5 21.9 90 1.1 NNE 4 13 2 7 - - 0.6
15/10:30pm 23.6 27.5 21.9 90 1.1 NE 4 9 2 5 - - 0.6
15/10:00pm 23.6 27.1 21.9 90 1.1 ENE 6 11 3 6 - - 0.6
15/09:30pm 23.7 27.1 22.0 90 1.1 NE 7 13 4 7 - - 0.6
15/09:00pm 23.7 27.3 22.0 90 1.1 NNE 6 17 3 9 - - 0.4
15/08:30pm 23.8 27.4 22.1 90 1.1 NNE 6 15 3 8 - - 0.4
15/08:00pm 23.7 27.3 22.0 90 1.1 NE 6 13 3 7 - - 0.4
15/07:30pm 23.6 26.9 21.9 90 1.1 NNE 7 11 4 6 - - 0.2
15/07:00pm 23.8 26.6 21.5 87 1.5 NE 9 17 5 9 - - 0.2
15/06:30pm 24.9 27.6 21.4 81 2.3 NNE 9 20 5 11 - - 0.2
15/06:00pm 25.2 28.0 21.5 80 2.5 NNE 9 19 5 10 - - 0.2
15/05:30pm 25.4 27.9 21.1 77 2.8 NE 9 22 5 12 - - 0.2
15/05:00pm 27.0 29.8 21.5 72 3.7 ENE 9 19 5 10 - - 0.2
15/04:30pm 27.4 29.5 21.0 68 4.2 E 11 20 6 11 - - 0.2
15/04:00pm 28.7 31.0 20.7 62 5.3 ENE 9 15 5 8 - - 0.2
15/03:30pm 29.4 31.3 19.7 56 6.4 NNE 9 20 5 11 - - 0.2
15/03:00pm 28.9 31.2 20.6 61 5.5 NNE 9 19 5 10 - - 0.2
15/02:30pm 30.0 33.1 22.2 63 5.3 NNE 9 20 5 11 - - 0.2
15/02:00pm 28.6 30.8 21.1 64 5.0 NNE 11 24 6 13 - - 0.2
15/01:30pm 28.1 29.4 20.1 62 5.2 N 13 24 7 13 - - 0.2
15/01:00pm 28.1 28.4 19.6 60 5.5 NNE 17 30 9 16 - - 0.2
15/12:30pm 29.4 31.1 21.6 63 5.2 NNE 15 28 8 15 - - 0.2
15/12:00pm 27.4 29.5 21.7 71 3.8 NNE 13 26 7 14 - - 0.2
15/11:30am 25.7 28.5 23.0 85 1.8 N 13 24 7 13 - - 0.2
15/11:00am 27.4 29.1 21.7 71 3.8 N 15 24 8 13 - - 0.0
15/10:30am 27.4 29.0 21.4 70 4.0 N 15 22 8 12 - - 0.0
15/10:00am 27.5 29.8 22.0 72 3.7 N 13 32 7 17 - - 0.0
15/09:30am 26.7 28.4 21.7 74 3.3 N 15 24 8 13 - - 0.0
15/09:00am 26.1 27.9 21.1 74 3.3 N 13 20 7 11 - - 14.2
15/08:30am 26.0 27.5 21.2 75 3.2 N 15 24 8 13 - - 14.2
15/08:00am 25.6 27.7 21.7 79 2.6 NNE 13 22 7 12 - - 14.2
15/07:30am 24.4 26.8 21.5 84 1.9 NNE 11 19 6 10 - - 14.2
15/07:00am 23.4 26.7 21.8 91 1.1 N 7 13 4 7 - - 14.2
15/06:30am 22.4 24.8 20.9 91 1.0 N 9 15 5 8 - - 14.2
15/06:00am 22.4 25.2 20.9 91 1.0 NNE 7 13 4 7 - - 14.2
15/05:30am 22.7 25.9 21.3 92 0.9 NNE 6 11 3 6 - - 14.2
15/05:00am 21.9 24.6 20.7 93 0.8 N 7 13 4 7 - - 14.2
15/04:30am 21.4 23.8 20.0 92 0.9 N 7 17 4 9 - - 14.2
15/04:00am 21.4 24.1 20.2 93 0.8 N 6 11 3 6 - - 14.2
15/03:30am 21.0 23.4 19.6 92 0.9 NNE 6 11 3 6 - - 14.2
15/03:00am 20.8 23.9 19.5 92 0.8 E 2 7 1 4 - - 13.8
15/02:30am 20.8 23.0 19.5 92 0.8 E 7 11 4 6 - - 12.8
15/02:00am 20.7 22.8 19.4 92 0.8 N 7 13 4 7 - - 10.8
15/01:30am 20.8 23.9 19.5 92 0.8 E 2 7 1 4 - - 9.6
15/01:00am 20.7 24.0 19.2 91 0.9 CALM 0 0 0 0 - - 9.6
15/12:30am 20.7 22.9 19.2 91 0.9 SSW 6 9 3 5 - - 9.0
15/12:00am 20.8 21.8 18.6 87 1.4 NW 11 22 6 12 - - 7.6
 
Date/Time
EST
Temp
°C
App
Temp
°C
Dew
Point
°C
Rel
Hum
%
Delta-T
°C
Wind Press
QNH
hPa
Press
MSL
hPa
Rain since
9am
mm
Dir  Spd
km/h
Gust
km/h
Spd
kts
Gust
kts
14/11:30pm 22.6 25.6 18.4 77 2.6 CALM 0 6 0 3 - - 0.6
14/11:00pm 22.5 24.0 18.1 76 2.8 SW 7 13 4 7 - - 0.6
14/10:30pm 22.7 24.5 18.7 78 2.5 W 7 17 4 9 - - 0.6
14/10:00pm 23.9 28.1 21.8 88 1.4 NNE 2 6 1 3 - - 0.6
14/09:30pm 24.0 28.8 22.1 89 1.3 CALM 0 6 0 3 - - 0.6
14/09:00pm 23.9 27.5 22.0 89 1.3 NNE 6 9 3 5 - - 0.6
14/08:30pm 24.0 27.3 21.9 88 1.4 N 7 11 4 6 - - 0.6
14/08:00pm 24.7 27.6 21.8 84 1.9 NNE 9 15 5 8 - - 0.6
14/07:30pm 24.6 27.8 21.7 84 1.9 NE 7 15 4 8 - - 0.6
14/07:00pm 24.6 27.6 21.9 85 1.8 NNE 9 20 5 11 - - 0.6
14/06:30pm 24.9 27.7 21.6 82 2.2 NNE 9 17 5 9 - - 0.6
14/06:00pm 25.4 28.3 21.1 77 2.8 ENE 7 17 4 9 - - 0.6
14/05:30pm 26.1 28.2 20.9 73 3.4 NE 11 20 6 11 - - 0.6
14/05:00pm 28.1 29.8 20.9 65 4.8 NNE 13 20 7 11 - - 0.6
14/04:30pm 29.4 31.4 21.6 63 5.2 NNE 13 26 7 14 - - 0.6
14/04:00pm 29.3 30.9 20.7 59 5.7 NNE 13 22 7 12 - - 0.6
14/03:30pm 29.5 31.4 20.6 58 5.9 NE 11 20 6 11 - - 0.6
14/03:00pm 29.2 31.5 21.4 63 5.2 N 11 20 6 11 - - 0.6
14/02:30pm 27.9 28.7 20.7 65 4.8 N 17 28 9 15 - - 0.6
14/02:00pm 29.0 31.1 22.5 68 4.4 NNE 15 30 8 16 - - 0.6
14/01:30pm 28.1 29.3 20.6 63 5.0 NNE 15 28 8 15 - - 0.6
14/01:00pm 29.1 29.9 21.3 62 5.2 N 19 30 10 16 - - 0.6
14/12:30pm 28.4 28.8 20.9 64 5.0 N 20 35 11 19 - - 0.6
14/12:00pm 28.4 29.4 21.7 67 4.5 N 19 37 10 20 - - 0.6
14/11:30am 27.1 29.9 22.3 75 3.2 N 11 20 6 11 - - 0.6
14/11:00am 25.6 27.0 21.1 76 3.0 N 15 22 8 12 - - 0.6
14/10:30am 25.6 28.5 21.7 79 2.6 N 9 19 5 10 - - 0.6
14/10:00am 23.9 26.6 21.4 86 1.7 N 9 15 5 8 - - 0.6
14/09:30am 21.9 23.9 20.0 89 1.2 N 9 15 5 8 - - 0.6
14/09:00am 20.9 22.0 18.8 88 1.3 N 11 19 6 10 - - 4.4
14/08:30am 21.2 22.7 18.9 87 1.4 NNW 9 17 5 9 - - 3.0
14/08:00am 21.9 24.2 19.8 88 1.3 N 7 15 4 8 - - 2.0
14/07:30am 22.5 26.5 20.6 89 1.2 CALM 0 0 0 0 - - 1.4
14/07:00am 22.6 26.7 20.7 89 1.2 CALM 0 0 0 0 - - 0.8
14/06:30am 22.8 26.7 20.3 86 1.6 CALM 0 0 0 0 - - 0.0
14/06:00am 22.9 26.3 20.2 85 1.7 SE 2 6 1 3 - - 0.0
14/05:30am 23.0 26.0 20.0 83 1.9 E 4 11 2 6 - - 0.0
14/05:00am 22.8 24.4 20.0 84 1.8 N 11 20 6 11 - - 0.0
14/04:30am 22.6 24.2 19.9 85 1.7 N 11 20 6 11 - - 0.0
14/04:00am 22.5 24.8 19.9 85 1.7 NNE 7 11 4 6 - - 0.0
14/03:30am 22.5 25.0 19.9 85 1.7 NNE 6 9 3 5 - - 0.0
14/03:00am 22.5 25.8 19.9 85 1.7 NE 2 6 1 3 - - 0.0
14/02:30am 22.6 26.3 19.9 85 1.7 CALM 0 6 0 3 - - 0.0
14/02:00am 22.6 25.5 19.8 84 1.8 N 4 7 2 4 - - 0.0
14/01:30am 23.0 25.7 19.4 80 2.3 NNE 4 7 2 4 - - 0.0
14/01:00am 23.4 25.5 19.3 78 2.6 N 7 13 4 7 - - 0.0
14/12:30am 23.4 25.0 19.1 77 2.7 N 9 13 5 7 - - 0.0
14/12:00am 23.4 24.9 18.9 76 2.9 NNE 9 19 5 10 - - 0.0
 
Date/Time
EST
Temp
°C
App
Temp
°C
Dew
Point
°C
Rel
Hum
%
Delta-T
°C
Wind Press
QNH
hPa
Press
MSL
hPa
Rain since
9am
mm
Dir  Spd
km/h
Gust
km/h
Spd
kts
Gust
kts
13/11:30pm 23.5 25.4 19.0 76 2.9 NNE 7 15 4 8 - - 0.0
13/11:00pm 23.4 25.0 19.1 77 2.7 NNE 9 20 5 11 - - 0.0
13/10:30pm 23.4 25.6 19.5 79 2.5 NE 7 15 4 8 - - 0.0
13/10:00pm 23.3 25.5 19.5 79 2.4 NNE 7 13 4 7 - - 0.0
13/09:30pm 23.4 25.5 19.3 78 2.6 NNE 7 13 4 7 - - 0.0
13/09:00pm 23.3 25.5 19.2 78 2.6 NNE 6 9 3 5 - - 0.0
13/08:30pm 23.4 26.3 19.1 77 2.7 N 2 9 1 5 - - 0.0
13/08:00pm 23.7 25.3 19.2 76 2.9 NNE 9 13 5 7 - - 0.0
13/07:30pm 23.8 25.3 18.9 74 3.1 NNE 9 17 5 9 - - 0.0
13/07:00pm 24.0 25.5 18.9 73 3.2 N 9 17 5 9 - - 0.0
13/06:30pm 24.3 26.2 18.9 72 3.4 NNE 7 11 4 6 - - 0.0
13/06:00pm 24.8 26.3 19.0 70 3.7 NNE 9 17 5 9 - - 0.0
13/05:30pm 25.5 26.5 18.7 66 4.3 NNE 11 22 6 12 - - 0.0
13/05:00pm 26.0 27.5 18.9 65 4.5 NNE 9 19 5 10 - - 0.0
13/04:30pm 26.0 27.0 18.7 64 4.7 NNE 11 20 6 11 - - 0.0
13/04:00pm 26.2 26.2 18.1 61 5.1 NNE 15 24 8 13 - - 0.0
13/03:30pm 27.7 28.3 18.7 58 5.8 NNE 13 24 7 13 - - 0.0
13/03:00pm 29.1 29.8 17.9 50 7.1 NNE 11 20 6 11 - - 0.0
13/02:30pm 29.1 29.8 17.9 50 7.1 NNE 11 22 6 12 - - 0.0
13/02:00pm 29.3 29.2 18.7 52 6.8 N 17 28 9 15 - - 0.0
13/01:30pm 29.3 29.4 18.4 51 7.0 N 15 24 8 13 - - 0.0
13/01:00pm 29.5 29.0 16.0 44 8.4 N 13 22 7 12 - - 0.0
13/12:30pm 29.0 28.2 15.2 43 8.4 N 13 20 7 11 - - 0.0
13/12:00pm 29.2 28.2 15.7 44 8.3 N 15 24 8 13 - - 0.0
13/11:30am 28.1 27.1 15.7 46 7.6 N 15 26 8 14 - - 0.0
13/11:00am 27.3 26.9 16.3 51 6.8 N 13 19 7 10 - - 0.0
13/10:30am 27.1 27.1 17.3 55 6.2 N 13 22 7 12 - - 0.0
13/10:00am 27.0 27.4 17.2 55 6.1 NNE 11 20 6 11 - - 0.0
13/09:30am 26.3 27.2 17.6 58 5.5 N 9 17 5 9 - - 0.0
13/09:00am 25.3 26.4 18.0 64 4.6 N 9 19 5 10 - - 0.0
13/08:30am 24.6 25.6 17.8 66 4.3 N 9 13 5 7 - - 0.0
13/08:00am 24.1 25.0 17.6 67 4.1 N 9 13 5 7 - - 0.0
13/07:30am 24.6 26.1 18.1 67 4.1 N 7 13 4 7 - - 0.0
13/07:00am 22.5 25.4 18.1 76 2.8 CALM 0 0 0 0 - - 0.0
13/06:30am 20.2 23.1 18.3 89 1.2 CALM 0 0 0 0 - - 0.0
13/06:00am 19.0 21.6 17.5 91 0.9 CALM 0 6 0 3 - - 0.0
13/05:30am 18.5 21.0 17.2 92 0.8 CALM 0 0 0 0 - - 0.0
13/05:00am 18.2 20.5 16.7 91 0.9 CALM 0 0 0 0 - - 0.0
13/04:30am 18.3 20.5 16.6 90 1.0 CALM 0 0 0 0 - - 0.0
13/04:00am 18.2 20.4 16.5 90 1.0 CALM 0 0 0 0 - - 0.0
13/03:30am 18.4 20.6 16.6 89 1.1 CALM 0 0 0 0 - - 0.0
13/03:00am 18.6 21.0 16.9 90 1.0 CALM 0 0 0 0 - - 0.0
13/02:30am 18.8 21.2 17.1 90 1.0 CALM 0 0 0 0 - - 0.0
13/02:00am 18.8 21.2 17.1 90 1.0 CALM 0 0 0 0 - - 0.0
13/01:30am 18.7 21.0 16.8 89 1.1 CALM 0 0 0 0 - - 0.0
13/01:00am 19.2 21.6 17.0 87 1.3 CALM 0 0 0 0 - - 0.0
13/12:30am 19.6 22.1 17.2 86 1.5 CALM 0 7 0 4 - - 0.0
13/12:00am 19.8 21.3 17.6 87 1.4 NNE 6 7 3 4 - - 0.0

Latest Capital City Observations: Canberra | Sydney | Melbourne | Brisbane | Adelaide | Perth | Hobart | Darwin

Other Formats:

Comma delimited format used in spreadsheet applications
http://www.bom.gov.au/fwo/IDQ60901/IDQ60901.95566.axf

JavaScript Object Notation format (JSON) in row-major order
http://www.bom.gov.au/fwo/IDQ60901/IDQ60901.95566.json